createdAt,value
2017-05-16T00:01:28.517Z,17.13
2017-05-16T00:03:54.870Z,16.77
2017-05-16T00:06:23.025Z,16.86
2017-05-16T00:08:51.538Z,16.62
2017-05-16T00:11:21.165Z,16.76
2017-05-16T00:13:49.431Z,16.85
2017-05-16T00:16:17.011Z,17.58
2017-05-16T00:18:43.456Z,16.92
2017-05-16T00:21:10.653Z,17.25
2017-05-16T00:23:37.037Z,16.69
2017-05-16T00:26:03.469Z,16.51
2017-05-16T00:28:29.810Z,16.77
2017-05-16T00:30:56.126Z,16.57
2017-05-16T00:33:22.458Z,16.71
2017-05-16T00:35:48.851Z,16.21
2017-05-16T00:38:15.183Z,16.65
2017-05-16T00:40:41.575Z,16.30
2017-05-16T00:43:07.903Z,16.32
2017-05-16T00:45:34.231Z,16.90
2017-05-16T00:48:00.569Z,16.70
2017-05-16T00:50:27.058Z,16.69
2017-05-16T00:52:54.082Z,16.61
2017-05-16T00:55:20.570Z,16.47
2017-05-16T00:57:46.901Z,16.40
2017-05-16T01:00:13.225Z,16.50
2017-05-16T01:02:39.569Z,16.22
2017-05-16T01:05:05.903Z,16.59
2017-05-16T01:07:32.379Z,16.38
2017-05-16T01:09:58.726Z,16.28
2017-05-16T01:12:25.094Z,16.23
2017-05-16T01:14:51.410Z,16.09
2017-05-16T01:17:17.870Z,16.02
2017-05-16T01:19:44.207Z,16.62
2017-05-16T01:22:10.555Z,16.70
2017-05-16T01:24:36.861Z,16.64
2017-05-16T01:27:03.802Z,16.30
2017-05-16T01:29:30.490Z,16.88
2017-05-16T01:31:56.988Z,16.45
2017-05-16T01:34:23.335Z,16.36
2017-05-16T01:36:49.707Z,16.45
2017-05-16T01:39:16.821Z,16.11
2017-05-16T01:41:43.170Z,16.77
2017-05-16T01:44:09.597Z,16.79
2017-05-16T01:46:35.944Z,16.51
2017-05-16T01:49:02.289Z,16.01
2017-05-16T01:51:28.662Z,16.00
2017-05-16T01:53:54.996Z,16.15
2017-05-16T01:56:21.330Z,16.38
2017-05-16T01:58:47.635Z,16.34
2017-05-16T02:01:13.967Z,15.98
2017-05-16T02:03:40.308Z,16.39
2017-05-16T02:06:06.649Z,16.18
2017-05-16T02:08:32.976Z,16.00
2017-05-16T02:10:59.307Z,16.55
2017-05-16T02:13:25.645Z,16.14
2017-05-16T02:15:51.982Z,15.93
2017-05-16T02:18:18.299Z,16.39
2017-05-16T02:20:44.621Z,16.03
2017-05-16T02:23:10.957Z,16.73
2017-05-16T02:25:37.257Z,16.10
2017-05-16T02:28:03.562Z,16.10
2017-05-16T02:30:29.882Z,16.11
2017-05-16T02:32:56.236Z,16.04
2017-05-16T02:35:22.557Z,16.13
2017-05-16T02:37:48.874Z,15.94
2017-05-16T02:40:15.190Z,15.89
2017-05-16T02:42:41.661Z,15.91
2017-05-16T02:45:07.972Z,15.95
2017-05-16T02:47:34.303Z,16.25
2017-05-16T02:50:00.681Z,16.04
2017-05-16T02:52:27.036Z,16.65
2017-05-16T02:54:53.360Z,16.79
2017-05-16T02:57:19.676Z,16.24
2017-05-16T02:59:46.002Z,17.15
2017-05-16T03:02:12.333Z,17.29
2017-05-16T03:04:38.675Z,17.10
2017-05-16T03:07:05.008Z,17.52
2017-05-16T03:09:31.329Z,17.13
2017-05-16T03:11:57.663Z,17.32
2017-05-16T03:14:24.133Z,16.86
2017-05-16T03:16:50.455Z,16.98
2017-05-16T03:19:16.832Z,17.58
2017-05-16T03:21:43.162Z,16.31
2017-05-16T03:24:09.499Z,16.32
2017-05-16T03:26:35.801Z,16.50
2017-05-16T03:29:02.118Z,16.40
2017-05-16T03:31:28.465Z,16.10
2017-05-16T03:33:54.789Z,16.12
2017-05-16T03:36:21.188Z,15.97
2017-05-16T03:38:47.506Z,16.17
2017-05-16T03:41:13.837Z,16.74
2017-05-16T03:43:40.135Z,17.17
2017-05-16T03:46:06.492Z,17.18
2017-05-16T03:48:32.811Z,16.40
2017-05-16T03:50:59.156Z,16.94
2017-05-16T03:53:25.465Z,17.56
2017-05-16T03:55:51.798Z,17.38
2017-05-16T03:58:18.115Z,17.03
2017-05-16T04:00:44.456Z,17.61
2017-05-16T04:03:10.782Z,17.86
2017-05-16T04:05:37.113Z,17.45
2017-05-16T04:08:03.473Z,17.89
2017-05-16T04:10:29.785Z,17.81
2017-05-16T04:12:56.129Z,17.27
2017-05-16T04:15:22.477Z,16.85
2017-05-16T04:17:48.791Z,16.98
2017-05-16T04:20:15.110Z,16.93
2017-05-16T04:22:41.437Z,17.22
2017-05-16T04:25:07.754Z,17.53
2017-05-16T04:27:34.084Z,16.64
2017-05-16T04:30:00.425Z,16.61
2017-05-16T04:32:26.768Z,16.87
2017-05-16T04:34:53.091Z,16.62
2017-05-16T04:37:19.453Z,16.62
2017-05-16T04:39:45.768Z,16.74
2017-05-16T04:42:12.089Z,17.46
2017-05-16T04:44:38.429Z,17.36
2017-05-16T04:47:04.752Z,17.77
2017-05-16T04:49:31.077Z,17.48
2017-05-16T04:51:57.399Z,17.99
2017-05-16T04:54:23.720Z,18.07
2017-05-16T04:56:50.039Z,17.65
2017-05-16T04:59:16.368Z,16.92
2017-05-16T05:01:42.692Z,16.62
2017-05-16T05:04:09.042Z,16.98
2017-05-16T05:06:35.343Z,17.07
2017-05-16T05:09:01.673Z,17.11
2017-05-16T05:11:28.009Z,17.04
2017-05-16T05:13:54.360Z,17.52
2017-05-16T05:16:20.721Z,17.97
2017-05-16T05:18:47.141Z,17.88
2017-05-16T05:21:13.485Z,17.72
2017-05-16T05:23:39.804Z,17.79
2017-05-16T05:26:06.153Z,18.25
2017-05-16T05:28:32.479Z,18.11
2017-05-16T05:30:58.816Z,17.88
2017-05-16T05:33:25.611Z,18.04
2017-05-16T05:35:51.949Z,18.16
2017-05-16T05:38:18.273Z,18.33
2017-05-16T05:40:44.633Z,18.40
2017-05-16T05:43:10.960Z,18.25
2017-05-16T05:45:37.269Z,18.43
2017-05-16T05:48:03.604Z,18.46
2017-05-16T05:50:29.973Z,18.39
2017-05-16T05:52:56.287Z,18.06
2017-05-16T05:55:22.614Z,17.79
2017-05-16T05:57:48.912Z,17.73
2017-05-16T06:00:15.241Z,18.41
2017-05-16T06:02:41.558Z,18.60
2017-05-16T06:05:07.936Z,18.69
2017-05-16T06:07:34.274Z,18.15
2017-05-16T06:10:00.648Z,18.72
2017-05-16T06:12:27.005Z,18.82
2017-05-16T06:14:53.350Z,18.85
2017-05-16T06:17:19.667Z,18.77
2017-05-16T06:19:45.997Z,18.88
2017-05-16T06:22:12.325Z,18.95
2017-05-16T06:24:38.652Z,18.71
2017-05-16T06:27:05.000Z,18.99
2017-05-16T06:29:31.364Z,18.52
2017-05-16T06:31:57.689Z,18.80
2017-05-16T06:34:24.056Z,18.98
2017-05-16T06:36:50.417Z,18.97
2017-05-16T06:39:16.779Z,19.02
2017-05-16T06:41:43.120Z,18.85
2017-05-16T06:44:09.464Z,18.63
2017-05-16T06:46:35.769Z,18.92
2017-05-16T06:49:02.154Z,19.00
2017-05-16T06:51:28.484Z,19.01
2017-05-16T06:53:54.817Z,19.21
2017-05-16T06:56:21.141Z,19.23
2017-05-16T06:58:47.533Z,19.20
2017-05-16T07:01:13.879Z,19.31
2017-05-16T07:03:40.226Z,19.52
2017-05-16T07:06:06.552Z,19.58
2017-05-16T07:08:32.905Z,19.63
2017-05-16T07:10:59.235Z,19.63
2017-05-16T07:13:25.598Z,19.52
2017-05-16T07:15:51.961Z,19.60
2017-05-16T07:18:18.294Z,19.66
2017-05-16T07:20:44.657Z,19.89
2017-05-16T07:23:10.975Z,19.81
2017-05-16T07:25:37.298Z,19.86
2017-05-16T07:28:03.669Z,19.75
2017-05-16T07:30:29.987Z,19.90
2017-05-16T07:32:56.373Z,20.09
2017-05-16T07:35:22.690Z,20.21
2017-05-16T07:37:49.046Z,20.27
2017-05-16T07:40:15.402Z,20.29
2017-05-16T07:42:41.725Z,20.38
2017-05-16T07:45:08.114Z,20.44
2017-05-16T07:47:34.479Z,20.56
2017-05-16T07:50:00.837Z,20.88
2017-05-16T07:52:27.151Z,20.88
2017-05-16T07:54:53.478Z,20.93
2017-05-16T07:57:19.821Z,21.06
2017-05-16T07:59:46.136Z,21.17
2017-05-16T08:02:12.441Z,21.19
2017-05-16T08:04:38.764Z,21.62
2017-05-16T08:07:05.088Z,21.60
2017-05-16T08:09:31.423Z,21.95
2017-05-16T08:11:57.748Z,21.84
2017-05-16T08:14:24.136Z,22.16
2017-05-16T08:16:50.455Z,22.09
2017-05-16T08:19:16.797Z,22.27
2017-05-16T08:21:43.115Z,22.34
2017-05-16T08:24:09.448Z,22.25
2017-05-16T08:26:35.776Z,22.42
2017-05-16T08:29:02.098Z,22.44
2017-05-16T08:31:28.446Z,22.55
2017-05-16T08:33:54.811Z,22.48
2017-05-16T08:36:21.142Z,22.81
2017-05-16T08:38:47.461Z,22.69
2017-05-16T08:41:13.809Z,22.86
2017-05-16T08:43:40.138Z,23.04
2017-05-16T08:46:06.472Z,22.96
2017-05-16T08:48:32.822Z,22.83
2017-05-16T08:50:59.175Z,22.79
2017-05-16T08:53:25.573Z,22.99
2017-05-16T08:55:51.899Z,22.96
2017-05-16T08:58:18.194Z,23.45
2017-05-16T09:00:44.517Z,23.35
2017-05-16T09:03:10.874Z,23.61
2017-05-16T09:05:37.218Z,23.77
2017-05-16T09:08:03.582Z,23.60
2017-05-16T09:10:29.908Z,23.79
2017-05-16T09:12:56.265Z,23.69
2017-05-16T09:15:22.626Z,23.81
2017-05-16T09:17:48.981Z,23.83
2017-05-16T09:20:15.324Z,23.68
2017-05-16T09:22:41.665Z,24.01
2017-05-16T09:25:07.994Z,23.71
2017-05-16T09:27:34.337Z,23.80
2017-05-16T09:30:00.699Z,23.87
2017-05-16T09:32:27.000Z,23.90
2017-05-16T09:34:53.336Z,23.98
2017-05-16T09:37:19.631Z,24.07
2017-05-16T09:39:45.978Z,23.93
2017-05-16T09:42:12.308Z,24.44
2017-05-16T09:44:38.618Z,24.50
2017-05-16T09:47:04.951Z,24.11
2017-05-16T09:49:31.278Z,24.11
2017-05-16T09:51:57.634Z,23.95
2017-05-16T09:54:23.963Z,24.33
2017-05-16T09:56:50.311Z,23.92
2017-05-16T09:59:16.640Z,24.05
2017-05-16T10:01:42.990Z,24.46
2017-05-16T10:04:09.314Z,24.63
2017-05-16T10:06:35.634Z,24.82
2017-05-16T10:09:01.984Z,24.66
2017-05-16T10:11:28.328Z,24.63
2017-05-16T10:13:54.648Z,24.86
2017-05-16T10:16:20.981Z,25.46
2017-05-16T10:18:47.326Z,25.55
2017-05-16T10:21:13.655Z,25.00
2017-05-16T10:23:39.998Z,25.84
2017-05-16T10:26:06.328Z,26.04
2017-05-16T10:28:32.663Z,26.12
2017-05-16T10:30:59.002Z,26.59
2017-05-16T10:33:25.359Z,26.76
2017-05-16T10:38:17.465Z,27.03
2017-05-16T10:40:43.797Z,27.24
2017-05-16T10:43:10.103Z,26.90
2017-05-16T10:45:36.416Z,26.76
2017-05-16T10:48:02.815Z,26.55
2017-05-16T10:50:29.189Z,26.52
2017-05-16T10:52:55.511Z,26.39
2017-05-16T10:55:21.841Z,26.88
2017-05-16T10:57:48.181Z,27.31
2017-05-16T11:00:14.495Z,26.61
2017-05-16T11:02:40.819Z,26.78
2017-05-16T11:05:07.176Z,27.03
2017-05-16T11:07:33.511Z,27.14
2017-05-16T11:09:59.828Z,26.60
2017-05-16T11:12:26.148Z,27.25
2017-05-16T11:14:52.471Z,27.36
2017-05-16T11:17:18.770Z,27.69
2017-05-16T11:19:45.098Z,27.56
2017-05-16T11:22:11.440Z,28.02
2017-05-16T11:24:37.779Z,27.81
2017-05-16T11:27:04.114Z,27.78
2017-05-16T11:29:30.435Z,28.39
2017-05-16T11:31:56.777Z,29.09
2017-05-16T11:34:23.069Z,28.75
2017-05-16T11:36:49.422Z,29.39
2017-05-16T11:39:15.817Z,29.20
2017-05-16T11:41:42.131Z,28.37
2017-05-16T11:44:08.491Z,28.51
2017-05-16T11:46:34.835Z,29.34
2017-05-16T11:49:01.156Z,28.68
2017-05-16T11:51:27.959Z,28.70
2017-05-16T11:53:54.311Z,27.82
2017-05-16T11:56:20.642Z,28.29
2017-05-16T11:58:46.957Z,29.12
2017-05-16T12:01:13.298Z,28.46
2017-05-16T12:03:39.635Z,28.75
2017-05-16T12:06:05.980Z,29.55
2017-05-16T12:08:32.327Z,28.84
2017-05-16T12:10:58.650Z,28.36
2017-05-16T12:13:24.979Z,28.23
2017-05-16T12:15:51.329Z,28.64
2017-05-16T12:18:17.710Z,29.06
2017-05-16T12:20:44.022Z,28.53
2017-05-16T12:23:10.355Z,28.73
2017-05-16T12:25:36.670Z,28.32
2017-05-16T12:28:02.996Z,29.05
2017-05-16T12:30:29.314Z,29.06
2017-05-16T12:32:55.644Z,29.04
2017-05-16T12:35:21.958Z,28.85
2017-05-16T12:37:48.302Z,29.02
2017-05-16T12:40:14.642Z,29.14
2017-05-16T12:42:40.945Z,29.60
2017-05-16T12:45:07.263Z,29.23
2017-05-16T12:47:33.664Z,28.45
2017-05-16T12:49:59.997Z,29.01
2017-05-16T12:52:26.363Z,29.58
2017-05-16T12:54:52.677Z,28.92
2017-05-16T12:57:19.027Z,28.60
2017-05-16T12:59:45.378Z,28.84
2017-05-16T13:02:11.705Z,29.68
2017-05-16T13:04:38.019Z,28.61
2017-05-16T13:07:04.365Z,28.96
2017-05-16T13:09:30.705Z,29.49
2017-05-16T13:11:57.061Z,29.44
2017-05-16T13:14:23.393Z,30.16
2017-05-16T13:16:49.716Z,29.97
2017-05-16T13:19:16.049Z,29.71
2017-05-16T13:21:42.370Z,29.59
2017-05-16T13:24:08.732Z,30.02
2017-05-16T13:26:35.089Z,29.86
2017-05-16T13:29:01.438Z,30.50
2017-05-16T13:31:27.763Z,30.31
2017-05-16T13:33:54.104Z,30.57
2017-05-16T13:36:20.420Z,30.45
2017-05-16T13:38:46.736Z,30.29
2017-05-16T13:41:13.042Z,29.85
2017-05-16T13:43:39.380Z,30.51
2017-05-16T13:46:05.698Z,30.40
2017-05-16T13:48:32.011Z,29.70
2017-05-16T13:50:58.353Z,30.30
2017-05-16T13:53:24.686Z,30.14
2017-05-16T13:55:50.987Z,29.65
2017-05-16T13:58:17.312Z,30.04
2017-05-16T14:00:43.701Z,30.23
2017-05-16T14:03:10.032Z,30.47
2017-05-16T14:05:36.381Z,29.36
2017-05-16T14:08:02.697Z,29.13
2017-05-16T14:10:29.014Z,29.99
2017-05-16T14:12:55.353Z,29.32
2017-05-16T14:15:21.670Z,30.15
2017-05-16T14:17:48.011Z,31.06
2017-05-16T14:20:14.338Z,30.50
2017-05-16T14:22:40.666Z,30.16
2017-05-16T14:25:06.990Z,31.43
2017-05-16T14:27:33.340Z,31.30
2017-05-16T14:29:59.744Z,30.07
2017-05-16T14:32:26.094Z,30.80
2017-05-16T14:34:52.531Z,30.94
2017-05-16T14:37:18.881Z,30.47
2017-05-16T14:39:45.190Z,30.75
2017-05-16T14:42:11.512Z,30.45
2017-05-16T14:44:37.831Z,30.59
2017-05-16T14:47:04.201Z,30.92
2017-05-16T14:49:30.556Z,32.10
2017-05-16T14:51:56.889Z,31.16
2017-05-16T14:54:23.203Z,31.58
2017-05-16T14:56:49.557Z,30.97
2017-05-16T14:59:15.933Z,31.01
2017-05-16T15:01:42.294Z,31.08
2017-05-16T15:04:08.665Z,30.28
2017-05-16T15:06:35.017Z,31.22
2017-05-16T15:09:01.369Z,31.52
2017-05-16T15:11:27.800Z,30.81
2017-05-16T15:13:54.869Z,31.33
2017-05-16T15:16:21.248Z,30.75
2017-05-16T15:18:47.634Z,29.99
2017-05-16T15:21:14.204Z,30.38
2017-05-16T15:23:40.614Z,31.48
2017-05-16T15:26:06.948Z,31.01
2017-05-16T15:28:33.685Z,31.19
2017-05-16T15:31:00.023Z,31.20
2017-05-16T15:33:26.433Z,31.18
2017-05-16T15:35:52.790Z,30.59
2017-05-16T15:38:19.234Z,29.88
2017-05-16T15:40:45.573Z,30.52
2017-05-16T15:43:11.930Z,30.43
2017-05-16T15:45:38.329Z,30.13
2017-05-16T15:48:04.662Z,30.07
2017-05-16T15:50:30.995Z,30.32
2017-05-16T15:52:57.357Z,29.23
2017-05-16T15:55:23.733Z,29.31
2017-05-16T15:57:50.088Z,29.07
2017-05-16T16:00:16.460Z,29.20
2017-05-16T16:02:42.833Z,29.25
2017-05-16T16:05:09.175Z,29.71
2017-05-16T16:07:35.500Z,29.83
2017-05-16T16:10:01.859Z,29.97
2017-05-16T16:12:28.229Z,29.89
2017-05-16T16:14:54.577Z,29.89
2017-05-16T16:17:20.931Z,30.02
2017-05-16T16:19:47.513Z,30.44
2017-05-16T16:22:13.867Z,30.32
2017-05-16T16:24:40.208Z,30.17
2017-05-16T16:27:06.577Z,29.87
2017-05-16T16:29:32.911Z,30.86
2017-05-16T16:31:59.266Z,30.32
2017-05-16T16:34:25.631Z,29.86
2017-05-16T16:36:51.995Z,30.43
2017-05-16T16:39:18.352Z,29.95
2017-05-16T16:41:44.688Z,30.55
2017-05-16T16:44:11.045Z,29.80
2017-05-16T16:46:37.438Z,29.72
2017-05-16T16:49:03.774Z,29.38
2017-05-16T16:51:30.136Z,29.22
2017-05-16T16:53:56.524Z,29.72
2017-05-16T16:56:22.890Z,29.53
2017-05-16T16:58:49.245Z,29.00
2017-05-16T17:01:15.604Z,28.93
2017-05-16T17:03:41.965Z,28.81
2017-05-16T17:06:08.351Z,28.88
2017-05-16T17:08:34.714Z,28.73
2017-05-16T17:11:01.078Z,29.01
2017-05-16T17:13:27.419Z,28.39
2017-05-16T17:15:53.767Z,29.01
2017-05-16T17:18:20.137Z,28.70
2017-05-16T17:20:46.482Z,28.43
2017-05-16T17:23:12.835Z,28.30
2017-05-16T17:25:39.196Z,28.52
2017-05-16T17:28:05.547Z,28.53
2017-05-16T17:30:31.911Z,28.02
2017-05-16T17:32:58.269Z,28.14
2017-05-16T17:35:24.602Z,28.08
2017-05-16T17:37:50.958Z,28.30
2017-05-16T17:40:17.325Z,28.15
2017-05-16T17:42:43.646Z,27.42
2017-05-16T17:45:10.256Z,27.38
2017-05-16T17:47:36.594Z,28.03
2017-05-16T17:50:02.983Z,27.57
2017-05-16T17:52:29.349Z,27.62
2017-05-16T17:54:55.744Z,27.38
2017-05-16T17:57:22.709Z,26.79
2017-05-16T17:59:49.130Z,27.48
2017-05-16T18:02:15.559Z,27.63
2017-05-16T18:04:41.963Z,27.69
2017-05-16T18:07:08.330Z,27.68
2017-05-16T18:09:34.674Z,27.70
2017-05-16T18:12:01.093Z,27.16
2017-05-16T18:14:27.530Z,27.07
2017-05-16T18:16:53.886Z,26.69
2017-05-16T18:19:20.269Z,26.79
2017-05-16T18:21:46.688Z,26.50
2017-05-16T18:24:13.059Z,27.05
2017-05-16T18:26:39.389Z,27.17
2017-05-16T18:29:05.774Z,27.08
2017-05-16T18:31:32.191Z,27.09
2017-05-16T18:33:58.643Z,27.08
2017-05-16T18:36:24.967Z,27.13
2017-05-16T18:38:51.285Z,27.10
2017-05-16T18:41:17.635Z,26.65
2017-05-16T18:43:44.013Z,26.86
2017-05-16T18:46:10.376Z,26.07
2017-05-16T18:48:36.719Z,26.36
2017-05-16T18:51:03.083Z,26.38
2017-05-16T18:53:29.440Z,26.14
2017-05-16T18:55:55.777Z,24.63
2017-05-16T18:58:22.085Z,24.22
2017-05-16T19:00:48.442Z,24.26
2017-05-16T19:03:14.793Z,24.21
2017-05-16T19:05:41.169Z,24.36
2017-05-16T19:08:07.614Z,24.56
2017-05-16T19:10:34.428Z,24.57
2017-05-16T19:13:00.761Z,24.84
2017-05-16T19:15:28.011Z,25.33
2017-05-16T19:17:54.394Z,25.70
2017-05-16T19:20:20.748Z,25.62
2017-05-16T19:22:47.196Z,25.58
2017-05-16T19:25:13.557Z,25.38
2017-05-16T19:27:39.973Z,23.81
2017-05-16T19:30:06.349Z,23.52
2017-05-16T19:32:32.689Z,23.47
2017-05-16T19:34:59.014Z,23.56
2017-05-16T19:37:25.382Z,23.89
2017-05-16T19:39:51.728Z,23.90
2017-05-16T19:42:18.018Z,24.77
2017-05-16T19:44:44.367Z,25.04
2017-05-16T19:47:11.013Z,25.10
2017-05-16T19:49:37.366Z,25.08
2017-05-16T19:52:03.687Z,24.99
2017-05-16T19:54:30.206Z,24.25
2017-05-16T19:56:56.706Z,23.93
2017-05-16T19:59:23.046Z,23.78
2017-05-16T20:01:49.402Z,24.49
2017-05-16T20:04:16.217Z,24.64
2017-05-16T20:06:42.707Z,23.54
2017-05-16T20:09:09.206Z,22.78
2017-05-16T20:11:35.689Z,23.52
2017-05-16T20:14:02.051Z,23.62
2017-05-16T20:16:28.421Z,22.91
2017-05-16T20:18:54.793Z,22.59
2017-05-16T20:21:21.155Z,22.51
2017-05-16T20:23:47.616Z,22.46
2017-05-16T20:26:14.019Z,22.80
2017-05-16T20:28:40.383Z,22.38
2017-05-16T20:31:06.742Z,22.46
2017-05-16T20:33:33.086Z,22.49
2017-05-16T20:35:59.468Z,22.70
2017-05-16T20:38:25.848Z,23.86
2017-05-16T20:40:52.895Z,24.20
2017-05-16T20:43:19.338Z,24.23
2017-05-16T20:45:45.727Z,24.16
2017-05-16T20:48:12.113Z,24.20
2017-05-16T20:50:38.453Z,24.10
2017-05-16T20:53:04.824Z,24.15
2017-05-16T20:55:31.189Z,24.16
2017-05-16T20:57:57.527Z,24.16
2017-05-16T21:00:23.901Z,23.80
2017-05-16T21:02:50.256Z,23.60
2017-05-16T21:05:16.610Z,23.16
2017-05-16T21:07:42.934Z,23.79
2017-05-16T21:10:09.302Z,23.93
2017-05-16T21:12:35.717Z,23.95
2017-05-16T21:15:02.046Z,23.89
2017-05-16T21:17:28.368Z,23.86
2017-05-16T21:19:54.778Z,23.82
2017-05-16T21:22:21.131Z,23.72
2017-05-16T21:24:47.554Z,23.49
2017-05-16T21:27:13.909Z,22.56
2017-05-16T21:29:41.765Z,22.11
2017-05-16T21:32:08.165Z,22.29
2017-05-16T21:34:34.772Z,22.64
2017-05-16T21:37:01.264Z,22.57
2017-05-16T21:39:27.598Z,22.68
2017-05-16T21:41:54.493Z,23.25
2017-05-16T21:44:21.545Z,22.57
2017-05-16T21:46:47.886Z,23.16
2017-05-16T21:49:14.221Z,22.96
2017-05-16T21:51:40.576Z,22.66
2017-05-16T21:54:07.188Z,21.84
2017-05-16T21:56:33.530Z,21.57
2017-05-16T21:58:59.990Z,22.40
2017-05-16T22:01:26.353Z,23.19
2017-05-16T22:03:52.702Z,23.02
2017-05-16T22:06:19.031Z,23.22
2017-05-16T22:08:45.360Z,22.96
2017-05-16T22:11:11.703Z,23.06
2017-05-16T22:13:38.048Z,23.20
2017-05-16T22:16:04.382Z,23.27
2017-05-16T22:18:30.721Z,23.31
2017-05-16T22:20:57.059Z,23.16
2017-05-16T22:23:23.763Z,23.03
2017-05-16T22:28:16.260Z,22.18
2017-05-16T22:30:42.589Z,21.52
2017-05-16T22:33:08.945Z,21.48
2017-05-16T22:35:35.322Z,22.23
2017-05-16T22:38:01.677Z,22.19
2017-05-16T22:40:28.270Z,22.34
2017-05-16T22:42:54.589Z,22.90
2017-05-16T22:45:21.200Z,22.80
2017-05-16T22:47:47.590Z,21.74
2017-05-16T22:50:14.145Z,21.74
2017-05-16T22:52:40.464Z,21.76
2017-05-16T22:55:06.800Z,21.62
2017-05-16T22:57:33.135Z,21.60
2017-05-16T22:59:59.753Z,21.78
2017-05-16T23:02:26.111Z,21.54
2017-05-16T23:04:53.021Z,22.25
2017-05-16T23:07:19.357Z,21.76
2017-05-16T23:09:45.687Z,20.60
2017-05-16T23:12:12.034Z,20.88
2017-05-16T23:14:38.346Z,20.84
2017-05-16T23:17:04.656Z,21.09
2017-05-16T23:19:31.233Z,21.06
2017-05-16T23:21:57.641Z,20.56
2017-05-16T23:24:23.976Z,20.66
2017-05-16T23:26:50.329Z,20.80
2017-05-16T23:29:16.658Z,20.45
2017-05-16T23:31:43.020Z,21.00
2017-05-16T23:34:09.334Z,20.93
2017-05-16T23:36:35.693Z,20.84
2017-05-16T23:39:02.010Z,21.14
2017-05-16T23:41:28.360Z,20.93
2017-05-16T23:43:54.686Z,21.06
2017-05-16T23:46:21.018Z,21.36
2017-05-16T23:48:47.366Z,20.82
2017-05-16T23:51:14.182Z,20.54
2017-05-16T23:53:40.507Z,20.09
2017-05-16T23:56:06.992Z,20.17
2017-05-16T23:58:34.425Z,20.09
